createdAt,value
2023-03-29T10:55:33.586Z,13.17
2023-03-29T11:00:30.844Z,13.09
2023-03-29T11:05:32.100Z,13.35
2023-03-29T11:10:30.236Z,13.08
2023-03-29T11:15:33.795Z,13.09
2023-03-29T11:20:27.732Z,13.12
2023-03-29T11:25:28.473Z,13.42
2023-03-29T11:30:26.756Z,13.36
2023-03-29T11:35:26.923Z,13.09
2023-03-29T11:40:24.962Z,13.09
2023-03-29T11:45:26.378Z,13.07
2023-03-29T11:50:23.095Z,12.99
2023-03-29T11:55:22.645Z,12.94
2023-03-29T12:00:25.116Z,13.22
2023-03-29T12:05:22.967Z,13.33
2023-03-29T12:10:21.883Z,13.75
2023-03-29T12:15:21.638Z,13.32
2023-03-29T12:20:25.620Z,13
2023-03-29T12:25:20.234Z,12.92
2023-03-29T12:30:18.274Z,13.48
2023-03-29T12:35:18.246Z,13.25
2023-03-29T12:40:17.852Z,13.44
2023-03-29T12:45:15.668Z,12.97
2023-03-29T12:50:15.783Z,12.85
2023-03-29T12:55:15.773Z,13.65
2023-03-29T13:00:17.008Z,13.38
2023-03-29T13:02:04.485Z,13.2
2023-03-29T13:06:38.194Z,13.76
2023-03-29T13:11:37.583Z,13.19
2023-03-29T13:16:37.876Z,13.18
2023-03-29T13:21:34.287Z,13.05
2023-03-29T13:26:34.275Z,12.94
2023-03-29T13:31:33.316Z,13.1
2023-03-29T13:36:33.561Z,13.22
2023-03-29T13:41:32.220Z,12.93
2023-03-29T13:46:32.524Z,12.92
2023-03-29T13:51:32.260Z,12.93
2023-03-29T13:56:33.625Z,12.96
2023-03-29T14:05:36.796Z,12.88
2023-03-29T14:10:36.777Z,12.88
2023-03-29T14:15:50.243Z,12.9
2023-03-29T14:20:37.379Z,12.91
2023-03-29T14:25:34.245Z,12.9
2023-03-29T14:30:34.088Z,12.92
2023-03-29T14:35:34.088Z,12.91
2023-03-29T14:40:33.457Z,13.11
2023-03-29T14:45:33.225Z,12.88
2023-03-29T14:50:33.028Z,12.97
2023-03-29T14:55:32.963Z,13.1
2023-03-29T15:00:34.035Z,12.98
2023-03-29T15:05:30.960Z,12.93
2023-03-29T15:10:44.975Z,12.9
2023-03-29T15:15:29.668Z,12.94
2023-03-29T15:20:29.709Z,12.97
2023-03-29T15:25:26.898Z,12.99
2023-03-29T15:31:36.187Z,12.81
2023-03-29T15:35:27.599Z,12.87
2023-03-29T15:40:30.972Z,12.76
2023-03-29T15:45:25.880Z,12.75
2023-03-29T15:50:25.412Z,12.82
2023-03-29T15:55:26.252Z,12.8
2023-03-29T16:00:22.932Z,12.8
2023-03-29T16:05:23.776Z,12.74
2023-03-29T16:10:22.857Z,12.68
2023-03-29T16:15:25.265Z,12.62
2023-03-29T16:20:21.944Z,12.61
2023-03-29T16:25:21.627Z,12.6
2023-03-29T16:30:21.378Z,12.59
2023-03-29T16:35:22.377Z,12.59
2023-03-29T16:40:18.158Z,12.59
2023-03-29T16:45:18.322Z,12.58
2023-03-29T16:50:17.856Z,12.58
2023-03-29T16:55:17.558Z,12.57
2023-03-29T17:00:15.487Z,12.57
2023-03-29T17:02:03.270Z,12.57
2023-03-29T17:06:37.095Z,12.57
2023-03-29T17:11:35.406Z,12.57
2023-03-29T17:16:35.462Z,12.57
2023-03-29T17:21:34.409Z,12.57
2023-03-29T17:26:34.525Z,12.56
2023-03-29T17:31:34.269Z,12.56
2023-03-29T17:36:35.273Z,12.56
2023-03-29T17:41:31.220Z,12.56
2023-03-29T17:46:31.306Z,12.55
2023-03-29T17:51:30.397Z,12.55
2023-03-29T17:56:29.864Z,12.55
2023-03-29T18:00:56.290Z,12.54
2023-03-29T18:05:56.655Z,12.54
2023-03-29T18:10:56.045Z,12.54
2023-03-29T18:15:56.777Z,12.54
2023-03-29T18:20:53.665Z,12.54
2023-03-29T18:25:53.179Z,12.54
2023-03-29T18:30:56.253Z,12.53
2023-03-29T18:35:53.187Z,12.53
2023-03-29T18:40:49.797Z,12.53
2023-03-29T18:45:49.770Z,12.53
2023-03-29T18:50:49.055Z,12.53
2023-03-29T18:55:48.171Z,12.52
2023-03-29T19:05:35.717Z,12.53
2023-03-29T19:10:34.974Z,12.53
2023-03-29T19:15:34.457Z,12.53
2023-03-29T19:20:36.145Z,12.53
2023-03-29T19:25:32.934Z,12.52
2023-03-29T19:30:32.593Z,12.52
2023-03-29T19:35:32.048Z,12.52
2023-03-29T19:40:31.379Z,12.52
2023-03-29T19:45:30.658Z,12.52
2023-03-29T19:50:31.090Z,12.52
2023-03-29T19:55:30.420Z,12.52
2023-03-29T20:00:31.549Z,12.52
2023-03-29T20:05:29.715Z,12.51
2023-03-29T20:10:28.168Z,12.51
2023-03-29T20:15:27.788Z,12.51
2023-03-29T20:20:28.056Z,12.51
2023-03-29T20:25:25.567Z,12.51
2023-03-29T20:30:25.025Z,12.51
2023-03-29T20:35:24.508Z,12.5
2023-03-29T20:40:23.750Z,12.5
2023-03-29T20:45:23.628Z,12.5
2023-03-29T20:50:22.917Z,12.5
2023-03-29T20:55:22.936Z,12.5
2023-03-29T21:00:22.514Z,12.5
2023-03-29T21:02:09.439Z,12.46
2023-03-29T21:06:53.752Z,12.49
2023-03-29T21:11:53.807Z,12.49
2023-03-29T21:16:52.715Z,12.49
2023-03-29T21:21:52.675Z,12.49
2023-03-29T21:26:53.675Z,12.48
2023-03-29T21:31:56.764Z,12.46
2023-03-29T21:36:51.150Z,12.48
2023-03-29T21:41:50.745Z,12.48
2023-03-29T21:46:52.546Z,12.48
2023-03-29T21:51:49.429Z,12.48
2023-03-29T21:56:48.919Z,12.47
2023-03-29T22:00:55.297Z,12.48
2023-03-29T22:06:09.949Z,12.48
2023-03-29T22:10:52.719Z,12.48
2023-03-29T22:15:53.354Z,12.47
2023-03-29T22:20:51.516Z,12.47
2023-03-29T22:25:52.835Z,12.47
2023-03-29T22:30:51.739Z,12.48
2023-03-29T22:35:53.174Z,12.47
2023-03-29T22:40:49.876Z,12.47
2023-03-29T22:45:50.238Z,12.47
2023-03-29T22:50:49.339Z,12.47
2023-03-29T22:55:49.592Z,12.47
2023-03-29T23:00:49.442Z,12.47
2023-03-29T23:05:50.728Z,12.47
2023-03-29T23:10:40.502Z,12.48
2023-03-29T23:15:36.812Z,12.48
2023-03-29T23:20:36.667Z,12.48
2023-03-29T23:25:37.489Z,12.48
2023-03-29T23:30:34.569Z,12.48
2023-03-29T23:35:34.224Z,12.48
2023-03-29T23:40:33.869Z,12.48
2023-03-29T23:45:34.377Z,12.48
2023-03-29T23:50:31.106Z,12.48
2023-03-29T23:55:30.662Z,12.48
